Time;durP1;ratioP1;P1;durP2;ratioP2;P2;SDS_P1;SDS_P2;PMS_P1;PMS_P2;Temp;Humidity;BMP_temperature;BMP_pressure;BME280_temperature;BME280_humidity;BME280_pressure;Samples;Min_cycle;Max_cycle;Signal;HPM_P1;HPM_P2
2021/01/02 00:03:05;;;;;;;26.33;16.33;;;5.60;96.80;;;;;;4988340;28;20026;-43
2021/01/02 00:05:47;;;;;;;30.15;18.40;;;5.60;96.80;;;;;;4908131;29;20052;-44
2021/01/02 00:08:14;;;;;;;31.13;19.03;;;5.60;96.70;;;;;;4908220;29;20032;-44
2021/01/02 00:10:52;;;;;;;28.92;17.77;;;5.60;96.70;;;;;;4964682;28;20088;-45
2021/01/02 00:13:48;;;;;;;27.35;16.10;;;5.60;96.80;;;;;;4987135;28;20030;-44
2021/01/02 00:16:29;;;;;;;30.17;17.73;;;5.60;96.80;;;;;;4987472;28;20039;-44
2021/01/02 00:19:33;;;;;;;28.98;17.23;;;5.60;96.70;;;;;;4986114;28;20026;-43
2021/01/02 00:22:07;;;;;;;26.00;16.17;;;5.60;96.70;;;;;;4987506;28;20105;-43
2021/01/02 00:24:36;;;;;;;27.48;16.77;;;5.60;96.70;;;;;;4987099;28;20088;-43
2021/01/02 00:27:07;;;;;;;27.23;17.33;;;5.60;96.70;;;;;;4987614;28;20038;-43
2021/01/02 00:30:03;;;;;;;31.90;19.92;;;5.70;96.80;;;;;;4987617;28;20436;-44
2021/01/02 00:32:49;;;;;;;37.38;20.42;;;5.60;96.70;;;;;;4986995;28;20046;-44
2021/01/02 00:35:18;;;;;;;35.70;20.95;;;5.60;96.70;;;;;;4986879;28;20084;-43
2021/01/02 00:37:46;;;;;;;33.53;20.52;;;5.60;96.70;;;;;;4987670;28;20026;-42
2021/01/02 00:40:17;;;;;;;31.00;20.10;;;5.60;96.80;;;;;;4987756;28;20378;-43
2021/01/02 00:42:44;;;;;;;32.55;19.55;;;5.60;96.80;;;;;;4987087;28;20030;-43
2021/01/02 00:45:13;;;;;;;34.40;21.08;;;5.60;96.80;;;;;;4987093;28;20069;-43
2021/01/02 00:47:40;;;;;;;35.17;21.80;;;5.50;96.80;;;;;;4987597;28;20062;-44
2021/01/02 00:50:08;;;;;;;33.80;20.80;;;5.60;96.80;;;;;;4986906;28;20629;-43
2021/01/02 00:52:46;;;;;;;33.10;20.02;;;5.60;96.80;;;;;;4987006;28;20030;-43
2021/01/02 00:55:51;;;;;;;32.45;19.33;;;5.60;96.80;;;;;;4986473;28;20062;-42
2021/01/02 00:58:47;;;;;;;30.60;19.73;;;5.60;96.80;;;;;;4986425;28;20034;-43
2021/01/02 01:01:30;;;;;;;35.78;21.88;;;5.60;96.80;;;;;;4986067;28;20478;-43
2021/01/02 01:04:25;;;;;;;32.80;20.35;;;5.60;96.80;;;;;;4986696;28;20034;-43
2021/01/02 01:06:55;;;;;;;31.58;19.05;;;5.50;96.80;;;;;;4987269;28;20134;-43
2021/01/02 01:09:24;;;;;;;33.22;21.08;;;5.50;96.80;;;;;;4986155;28;20064;-44
2021/01/02 01:11:54;;;;;;;36.47;21.60;;;5.50;96.80;;;;;;4987087;28;20042;-44
2021/01/02 01:14:21;;;;;;;31.92;20.73;;;5.50;96.80;;;;;;4986595;28;20583;-44
2021/01/02 01:16:50;;;;;;;32.22;21.05;;;5.50;96.80;;;;;;4986210;28;20480;-43
2021/01/02 01:19:19;;;;;;;30.67;18.17;;;5.50;96.80;;;;;;4986406;28;20058;-42
2021/01/02 01:21:45;;;;;;;28.02;17.60;;;5.50;96.80;;;;;;4986937;28;20044;-43
2021/01/02 01:24:38;;;;;;;34.65;19.95;;;5.50;96.80;;;;;;4986474;28;20031;-44
2021/01/02 01:27:27;;;;;;;35.83;22.00;;;5.50;96.80;;;;;;4987111;28;20038;-43
2021/01/02 01:29:58;;;;;;;33.78;21.05;;;5.50;96.80;;;;;;4986718;28;20030;-43
2021/01/02 01:32:26;;;;;;;35.40;22.20;;;5.50;96.80;;;;;;4986203;28;20030;-43
2021/01/02 01:35:00;;;;;;;35.55;22.77;;;5.50;96.80;;;;;;4986749;28;20497;-43
2021/01/02 01:37:33;;;;;;;39.83;23.77;;;5.50;96.80;;;;;;4986081;28;20022;-42
2021/01/02 01:39:59;;;;;;;36.17;22.95;;;5.50;96.80;;;;;;4986991;28;20401;-43
2021/01/02 01:42:56;;;;;;;37.17;23.08;;;5.40;96.80;;;;;;4986661;28;20031;-44
2021/01/02 01:45:55;;;;;;;37.45;22.17;;;5.40;96.80;;;;;;4986025;28;20153;-43
2021/01/02 01:48:25;;;;;;;38.55;22.48;;;5.40;96.80;;;;;;4954729;28;20158;-43
2021/01/02 01:51:10;;;;;;;38.42;23.02;;;5.40;96.80;;;;;;4986561;28;20092;-43
2021/01/02 01:54:09;;;;;;;34.05;21.40;;;5.40;96.80;;;;;;4986692;28;20035;-43
2021/01/02 01:56:42;;;;;;;34.13;21.42;;;5.40;96.80;;;;;;4987061;28;20026;-43
2021/01/02 01:59:19;;;;;;;31.80;19.80;;;5.40;96.80;;;;;;4986277;28;20026;-43
2021/01/02 02:01:52;;;;;;;31.83;19.73;;;5.40;96.80;;;;;;4987981;28;20023;-43
2021/01/02 02:04:31;;;;;;;39.95;22.15;;;5.40;96.90;;;;;;4990143;28;20105;-43
2021/01/02 02:07:00;;;;;;;35.83;21.00;;;5.40;96.90;;;;;;4990097;28;20042;-43
2021/01/02 02:09:41;;;;;;;28.65;18.65;;;5.40;96.80;;;;;;4989493;28;20497;-44
2021/01/02 02:12:14;;;;;;;33.63;21.52;;;5.40;96.80;;;;;;4990309;28;20038;-42
2021/01/02 02:15:08;;;;;;;35.95;22.48;;;5.40;96.80;;;;;;4990470;28;20031;-44
2021/01/02 02:17:44;;;;;;;34.10;21.65;;;5.40;96.80;;;;;;4989319;28;20069;-43
2021/01/02 02:20:19;;;;;;;32.65;19.90;;;5.40;96.80;;;;;;4989579;28;20097;-43
2021/01/02 02:22:45;;;;;;;30.83;19.58;;;5.40;96.80;;;;;;4990147;28;20490;-44
2021/01/02 02:25:15;;;;;;;29.65;19.73;;;5.40;96.80;;;;;;4989693;28;20076;-44
2021/01/02 02:27:43;;;;;;;28.08;18.50;;;5.40;96.80;;;;;;4989801;28;20525;-43
2021/01/02 02:30:12;;;;;;;32.03;19.75;;;5.40;96.70;;;;;;4989947;28;20030;-43
2021/01/02 02:32:43;;;;;;;30.95;19.90;;;5.40;96.70;;;;;;4989778;28;20573;-43
2021/01/02 02:35:12;;;;;;;29.65;18.40;;;5.40;96.70;;;;;;4989812;28;20036;-44
2021/01/02 02:37:40;;;;;;;29.25;18.77;;;5.40;96.70;;;;;;4989827;28;20058;-43
2021/01/02 02:40:09;;;;;;;30.27;20.40;;;5.40;96.70;;;;;;4989877;28;20046;-44
2021/01/02 02:42:42;;;;;;;32.20;20.92;;;5.40;96.70;;;;;;4989474;28;20062;-43
2021/01/02 02:45:11;;;;;;;32.03;19.65;;;5.40;96.70;;;;;;4989865;28;20035;-44
2021/01/02 02:47:39;;;;;;;32.20;22.08;;;5.40;96.70;;;;;;4988983;28;20190;-44
2021/01/02 02:50:16;;;;;;;35.70;21.45;;;5.40;96.70;;;;;;4989349;28;20042;-44
2021/01/02 02:52:45;;;;;;;28.75;18.45;;;5.30;96.70;;;;;;4989727;28;20038;-43
2021/01/02 02:55:11;;;;;;;31.17;19.52;;;5.40;96.80;;;;;;4988725;28;20027;-43
2021/01/02 02:57:45;;;;;;;29.98;19.33;;;5.30;96.80;;;;;;4989281;28;20506;-43
2021/01/02 03:00:11;;;;;;;30.70;20.15;;;5.30;96.70;;;;;;4989409;28;20562;-43
2021/01/02 03:02:38;;;;;;;34.58;22.75;;;5.30;96.60;;;;;;4988721;28;20210;-43
2021/01/02 03:05:07;;;;;;;32.10;21.33;;;5.30;96.60;;;;;;4989300;28;20038;-44
2021/01/02 03:07:33;;;;;;;32.58;20.65;;;5.30;96.70;;;;;;4988864;28;20030;-43
2021/01/02 03:09:59;;;;;;;31.95;20.40;;;5.30;96.70;;;;;;4988980;28;20072;-44
2021/01/02 03:12:25;;;;;;;30.50;21.15;;;5.20;96.70;;;;;;4988596;28;20097;-43
2021/01/02 03:14:58;;;;;;;32.25;20.92;;;5.30;96.60;;;;;;4989525;28;20022;-44
2021/01/02 03:17:23;;;;;;;33.85;20.98;;;5.30;96.70;;;;;;4988111;28;20045;-43
2021/01/02 03:19:49;;;;;;;31.63;20.48;;;5.30;96.60;;;;;;4989273;28;20026;-44
2021/01/02 03:22:14;;;;;;;30.98;20.35;;;5.30;96.60;;;;;;4988313;28;20427;-43
2021/01/02 03:24:40;;;;;;;26.60;18.20;;;5.30;96.60;;;;;;4988471;28;20030;-43
2021/01/02 03:27:05;;;;;;;27.95;20.00;;;5.30;96.60;;;;;;4989320;28;20042;-42
2021/01/02 03:29:31;;;;;;;29.00;18.60;;;5.30;96.60;;;;;;4988025;28;20045;-43
2021/01/02 03:31:56;;;;;;;27.42;18.90;;;5.30;96.60;;;;;;4988539;28;20030;-44
2021/01/02 03:34:22;;;;;;;26.42;16.80;;;5.30;96.60;;;;;;4988475;28;20032;-44
2021/01/02 03:36:47;;;;;;;30.00;20.63;;;5.30;96.60;;;;;;4988388;28;20038;-43
2021/01/02 03:39:13;;;;;;;27.60;18.80;;;5.30;96.90;;;;;;4988285;28;20084;-44
2021/01/02 03:41:38;;;;;;;28.00;18.70;;;5.30;96.60;;;;;;4988981;28;20034;-44
2021/01/02 03:44:04;;;;;;;31.25;20.73;;;5.30;96.60;;;;;;4988063;28;20022;-44
2021/01/02 03:46:29;;;;;;;29.08;20.13;;;5.20;96.60;;;;;;4987788;28;20555;-44
2021/01/02 03:48:55;;;;;;;27.50;18.75;;;5.20;96.60;;;;;;4988801;28;20074;-44
2021/01/02 03:51:25;;;;;;;30.60;20.42;;;5.20;96.60;;;;;;4987405;28;20089;-43
2021/01/02 03:53:51;;;;;;;27.88;18.20;;;5.30;96.60;;;;;;4988284;28;20494;-44
2021/01/02 03:56:17;;;;;;;32.05;21.73;;;5.30;96.60;;;;;;4988048;28;20041;-44
2021/01/02 03:58:42;;;;;;;32.10;20.98;;;5.20;96.50;;;;;;4987992;28;20149;-44
2021/01/02 04:01:08;;;;;;;31.42;20.95;;;5.20;96.50;;;;;;4988341;28;20023;-43
2021/01/02 04:03:33;;;;;;;31.77;20.42;;;5.20;96.60;;;;;;4988213;28;20470;-44
2021/01/02 04:05:59;;;;;;;27.75;19.70;;;5.20;96.60;;;;;;4987886;28;20442;-43
2021/01/02 04:08:24;;;;;;;29.02;19.15;;;5.20;96.60;;;;;;4987637;28;20022;-43
2021/01/02 04:10:50;;;;;;;25.88;18.80;;;5.20;96.60;;;;;;4988399;28;20581;-43
2021/01/02 04:13:15;;;;;;;27.33;18.10;;;5.20;96.60;;;;;;4987057;28;20035;-43
2021/01/02 04:15:41;;;;;;;26.98;18.27;;;5.20;96.60;;;;;;4987887;28;20062;-42
2021/01/02 04:18:06;;;;;;;30.45;19.20;;;5.10;96.50;;;;;;4988528;28;20073;-44
2021/01/02 04:20:32;;;;;;;29.73;19.05;;;5.10;96.50;;;;;;4986999;28;20103;-44
2021/01/02 04:22:58;;;;;;;26.80;18.20;;;5.10;96.60;;;;;;4987998;28;20031;-44
2021/01/02 04:25:23;;;;;;;27.30;19.50;;;5.10;96.60;;;;;;4986933;28;20368;-44
2021/01/02 04:27:49;;;;;;;28.92;20.15;;;5.10;96.50;;;;;;4987518;28;20100;-44
2021/01/02 04:30:15;;;;;;;29.70;20.10;;;5.10;96.50;;;;;;4987147;28;20512;-44
2021/01/02 04:32:45;;;;;;;32.28;22.20;;;5.10;96.60;;;;;;4987736;28;20038;-43
2021/01/02 04:35:11;;;;;;;33.38;21.30;;;5.10;96.50;;;;;;4987147;28;20030;-43
2021/01/02 04:37:38;;;;;;;36.75;24.20;;;5.10;96.50;;;;;;4987734;28;20685;-43
2021/01/02 04:40:04;;;;;;;34.85;25.33;;;5.10;96.50;;;;;;4987184;28;20033;-42
2021/01/02 04:42:30;;;;;;;40.95;25.60;;;5.00;96.30;;;;;;4986856;28;20041;-43
2021/01/02 04:44:57;;;;;;;36.47;24.80;;;5.00;96.60;;;;;;4987267;28;20042;-43
2021/01/02 04:47:27;;;;;;;33.65;22.98;;;5.00;96.40;;;;;;4986341;28;20049;-43
2021/01/02 04:49:53;;;;;;;36.35;25.90;;;5.00;96.40;;;;;;4987524;28;20026;-43
2021/01/02 04:52:19;;;;;;;40.00;26.85;;;5.00;96.30;;;;;;4986951;28;20062;-44
2021/01/02 04:54:49;;;;;;;36.92;24.30;;;4.90;96.30;;;;;;4986895;28;20018;-44
2021/01/02 04:57:16;;;;;;;35.75;24.30;;;4.90;96.40;;;;;;4986565;28;20029;-44
2021/01/02 04:59:48;;;;;;;38.72;26.38;;;4.90;96.40;;;;;;4987582;28;20023;-42
2021/01/02 05:02:18;;;;;;;38.20;24.58;;;4.90;96.40;;;;;;4986415;28;20034;-43
2021/01/02 05:04:48;;;;;;;40.58;28.30;;;4.90;96.40;;;;;;4987098;28;20030;-43
2021/01/02 05:07:28;;;;;;;43.33;29.38;;;4.90;96.40;;;;;;4986685;28;20096;-43
2021/01/02 05:09:55;;;;;;;47.45;30.83;;;4.80;96.30;;;;;;4986829;28;20488;-43
2021/01/02 05:12:33;;;;;;;41.47;28.15;;;4.80;96.30;;;;;;4986819;28;20114;-43
2021/01/02 05:15:05;;;;;;;38.30;27.20;;;4.80;96.30;;;;;;4986726;28;20531;-43
2021/01/02 05:17:31;;;;;;;41.53;27.33;;;4.80;96.40;;;;;;4986431;28;20414;-43
2021/01/02 05:20:10;;;;;;;39.85;27.58;;;4.80;96.30;;;;;;4987035;28;20029;-44
2021/01/02 05:22:40;;;;;;;41.58;28.10;;;4.80;96.40;;;;;;4986619;28;20442;-44
2021/01/02 05:25:10;;;;;;;40.55;27.95;;;4.80;96.30;;;;;;4986581;28;20406;-43
2021/01/02 05:27:37;;;;;;;39.95;27.83;;;4.80;96.30;;;;;;4986820;28;20076;-44
2021/01/02 05:30:26;;;;;;;36.38;25.55;;;4.80;96.30;;;;;;4986996;28;20129;-43
2021/01/02 05:32:56;;;;;;;38.47;25.75;;;4.80;96.40;;;;;;4987340;28;20022;-43
2021/01/02 05:35:24;;;;;;;36.00;24.15;;;4.80;96.40;;;;;;4986499;28;20165;-44
2021/01/02 05:37:50;;;;;;;36.72;24.33;;;4.80;96.40;;;;;;4989878;28;20096;-40
2021/01/02 05:40:32;;;;;;;38.17;26.20;;;4.90;96.40;;;;;;4990551;28;20804;-42
2021/01/02 05:42:58;;;;;;;40.03;26.47;;;4.80;96.40;;;;;;4990858;28;20030;-43
2021/01/02 05:45:27;;;;;;;37.55;25.77;;;4.80;96.30;;;;;;4990091;28;20096;-43
2021/01/02 05:47:55;;;;;;;35.80;24.00;;;4.80;96.40;;;;;;4991224;28;20030;-43
2021/01/02 05:50:22;;;;;;;34.92;24.17;;;4.80;96.40;;;;;;4989836;28;20386;-43
2021/01/02 05:52:49;;;;;;;38.22;25.55;;;4.80;96.40;;;;;;4991041;28;20073;-44
2021/01/02 05:55:30;;;;;;;41.13;27.58;;;4.80;96.40;;;;;;4990440;28;20031;-44
2021/01/02 05:58:14;;;;;;;38.30;25.73;;;4.80;96.40;;;;;;4990410;28;20077;-43
2021/01/02 06:00:43;;;;;;;34.80;23.75;;;4.80;96.40;;;;;;4990843;28;20026;-43
2021/01/02 06:03:22;;;;;;;38.60;26.30;;;4.80;96.40;;;;;;4991008;28;20152;-43
2021/01/02 06:06:08;;;;;;;39.55;25.98;;;4.80;96.30;;;;;;4990047;28;20042;-43
2021/01/02 06:08:39;;;;;;;42.17;27.75;;;4.70;96.30;;;;;;4990091;28;20041;-43
2021/01/02 06:11:08;;;;;;;40.22;26.98;;;4.70;96.30;;;;;;4990430;28;20536;-43
2021/01/02 06:13:36;;;;;;;42.60;26.50;;;4.70;96.40;;;;;;4989761;28;20345;-42
2021/01/02 06:16:05;;;;;;;39.22;25.05;;;4.80;96.40;;;;;;4990399;28;20478;-43
2021/01/02 06:18:35;;;;;;;43.67;27.70;;;4.80;96.40;;;;;;4989357;28;20019;-43
2021/01/02 06:21:12;;;;;;;48.03;30.27;;;4.70;96.30;;;;;;4990375;28;20030;-43
2021/01/02 06:23:40;;;;;;;39.13;26.55;;;4.70;96.30;;;;;;4990273;28;20407;-43
2021/01/02 06:26:08;;;;;;;41.75;27.40;;;4.70;96.30;;;;;;4990064;28;20065;-43
2021/01/02 06:28:34;;;;;;;42.63;28.25;;;4.70;96.40;;;;;;4989630;28;20038;-43
2021/01/02 06:31:06;;;;;;;39.30;24.33;;;4.70;96.40;;;;;;4990172;28;20022;-43
2021/01/02 06:33:31;;;;;;;46.30;28.67;;;4.70;96.40;;;;;;4989452;28;20055;-43
2021/01/02 06:35:57;;;;;;;46.72;28.83;;;4.60;96.60;;;;;;4990117;28;20113;-42
2021/01/02 06:38:24;;;;;;;49.33;31.70;;;4.60;96.30;;;;;;4989417;28;20466;-43
2021/01/02 06:40:52;;;;;;;54.50;35.22;;;4.60;96.30;;;;;;4989810;28;20026;-43
2021/01/02 06:43:20;;;;;;;54.28;32.80;;;4.60;96.30;;;;;;4989157;28;20557;-43
2021/01/02 06:45:56;;;;;;;47.53;30.70;;;4.50;96.30;;;;;;4989816;28;20569;-44
2021/01/02 06:48:25;;;;;;;47.33;29.52;;;4.50;96.40;;;;;;4988565;28;20031;-43
2021/01/02 06:50:52;;;;;;;41.65;27.35;;;4.60;96.40;;;;;;4989777;28;20046;-44
2021/01/02 06:53:28;;;;;;;46.30;28.17;;;4.60;96.40;;;;;;4989212;28;20086;-43
2021/01/02 06:56:07;;;;;;;45.67;29.10;;;4.60;96.40;;;;;;4989899;28;20045;-44
2021/01/02 06:58:38;;;;;;;52.35;33.28;;;4.60;96.30;;;;;;4988984;28;20475;-43
2021/01/02 07:01:06;;;;;;;55.03;33.22;;;4.60;96.30;;;;;;4989311;28;20042;-43
2021/01/02 07:03:44;;;;;;;49.95;30.65;;;4.60;96.30;;;;;;4988848;28;20084;-43
2021/01/02 07:06:21;;;;;;;56.55;33.28;;;4.60;96.30;;;;;;4989080;28;20042;-44
2021/01/02 07:08:58;;;;;;;45.08;29.83;;;4.60;96.30;;;;;;4989383;28;20041;-44
2021/01/02 07:11:39;;;;;;;52.67;32.40;;;4.50;96.40;;;;;;4988857;28;20486;-44
2021/01/02 07:14:08;;;;;;;51.45;29.95;;;4.50;96.40;;;;;;4989306;28;20398;-43
2021/01/02 07:16:53;;;;;;;50.40;30.88;;;4.50;96.40;;;;;;4988787;28;20113;-43
2021/01/02 07:19:24;;;;;;;44.92;28.42;;;4.60;96.40;;;;;;4988995;28;20038;-42
2021/01/02 07:22:15;;;;;;;49.10;29.75;;;4.60;96.40;;;;;;4988765;28;20030;-42
2021/01/02 07:24:40;;;;;;;47.20;29.13;;;4.60;96.40;;;;;;4989102;28;20118;-43
2021/01/02 07:27:11;;;;;;;52.92;32.35;;;4.60;96.40;;;;;;4988905;28;20042;-43
2021/01/02 07:29:54;;;;;;;52.70;32.17;;;4.60;96.40;;;;;;4988934;28;20117;-43
2021/01/02 07:32:19;;;;;;;54.00;31.10;;;4.60;96.30;;;;;;4988437;28;20066;-43
2021/01/02 07:34:50;;;;;;;50.53;31.30;;;4.60;96.40;;;;;;4988951;28;20120;-43
2021/01/02 07:37:19;;;;;;;44.55;29.50;;;4.60;96.30;;;;;;4987987;28;20046;-43
2021/01/02 07:39:59;;;;;;;56.15;32.35;;;4.60;96.40;;;;;;4989035;28;20032;-43
2021/01/02 07:42:27;;;;;;;53.90;32.28;;;4.60;96.40;;;;;;4988392;28;20132;-43
2021/01/02 07:45:08;;;;;;;50.10;31.42;;;4.60;96.40;;;;;;4988315;28;20092;-43
2021/01/02 07:47:34;;;;;;;45.30;28.30;;;4.60;96.40;;;;;;4988529;28;20037;-44
2021/01/02 07:50:01;;;;;;;55.17;32.42;;;4.60;96.40;;;;;;4987999;28;20018;-43
2021/01/02 07:52:26;;;;;;;51.00;31.35;;;4.60;96.40;;;;;;4987641;28;20050;-43
2021/01/02 07:54:53;;;;;;;63.83;35.60;;;4.60;96.40;;;;;;4988655;28;20643;-44
2021/01/02 07:57:24;;;;;;;55.83;32.35;;;4.60;96.40;;;;;;4995540;28;20033;-44
2021/01/02 07:59:49;;;;;;;56.28;32.22;;;4.60;96.40;;;;;;4987614;28;20068;-44
2021/01/02 08:02:20;;;;;;;54.63;32.10;;;4.60;96.40;;;;;;4986328;28;20463;-44
2021/01/02 08:04:46;;;;;;;49.95;29.92;;;4.60;96.40;;;;;;4987244;28;20045;-42
2021/01/02 08:07:12;;;;;;;54.03;30.00;;;4.60;96.40;;;;;;4987610;28;20042;-43
2021/01/02 08:09:43;;;;;;;52.58;29.52;;;4.60;96.40;;;;;;4987368;28;20546;-43
2021/01/02 08:12:09;;;;;;;52.20;31.50;;;4.70;96.40;;;;;;4987142;28;20034;-43
2021/01/02 08:14:37;;;;;;;59.33;34.28;;;4.60;96.30;;;;;;4987268;28;20029;-42
2021/01/02 08:17:06;;;;;;;62.95;37.65;;;4.60;96.30;;;;;;4987269;28;20402;-43
2021/01/02 08:19:35;;;;;;;57.75;33.92;;;4.60;96.30;;;;;;4986059;28;20756;-43
2021/01/02 08:22:02;;;;;;;62.78;36.15;;;4.60;96.30;;;;;;4987608;28;20034;-43
2021/01/02 08:24:28;;;;;;;63.92;35.58;;;4.60;96.30;;;;;;4986370;28;20027;-43
2021/01/02 08:26:54;;;;;;;59.20;34.78;;;4.60;96.40;;;;;;4986783;28;20046;-44
2021/01/02 08:29:20;;;;;;;58.65;33.40;;;4.60;96.40;;;;;;4986579;28;20061;-43
2021/01/02 08:32:10;;;;;;;62.50;33.60;;;4.60;96.40;;;;;;4987236;28;20041;-43
2021/01/02 08:34:36;;;;;;;61.50;33.45;;;4.60;96.40;;;;;;4976281;28;20378;-43
2021/01/02 08:37:10;;;;;;;64.60;35.10;;;4.60;96.30;;;;;;4987168;28;20092;-44
2021/01/02 08:39:38;;;;;;;60.55;31.60;;;4.60;96.30;;;;;;4986001;28;20406;-44
2021/01/02 08:42:06;;;;;;;62.13;34.75;;;4.60;96.40;;;;;;4986376;28;20121;-43
2021/01/02 08:44:35;;;;;;;55.30;30.45;;;4.60;96.40;;;;;;4986023;28;20694;-43
2021/01/02 08:47:04;;;;;;;61.67;34.70;;;4.60;96.40;;;;;;4986584;28;20049;-43
2021/01/02 08:49:36;;;;;;;65.22;33.92;;;4.60;96.30;;;;;;4986229;28;20121;-43
2021/01/02 08:52:24;;;;;;;59.10;32.97;;;4.50;96.40;;;;;;4986705;28;20042;-44
2021/01/02 08:55:11;;;;;;;60.17;34.22;;;4.50;96.40;;;;;;4986189;28;20041;-44
2021/01/02 08:57:48;;;;;;;61.58;34.20;;;4.50;96.40;;;;;;4986387;28;20345;-44
2021/01/02 09:00:18;;;;;;;59.90;32.90;;;4.50;96.40;;;;;;4985476;28;20023;-44
2021/01/02 09:02:46;;;;;;;64.25;37.03;;;4.50;96.50;;;;;;4987213;28;20026;-43
2021/01/02 09:05:12;;;;;;;64.20;35.38;;;4.50;96.50;;;;;;4986001;28;20106;-43
2021/01/02 09:07:40;;;;;;;64.38;32.70;;;4.50;96.40;;;;;;4986641;28;20084;-44
2021/01/02 09:10:13;;;;;;;56.55;32.30;;;4.50;96.50;;;;;;4986642;28;20119;-44
2021/01/02 09:12:38;;;;;;;55.35;30.98;;;4.60;96.50;;;;;;4986656;28;20061;-44
2021/01/02 09:15:04;;;;;;;54.22;30.10;;;4.60;96.50;;;;;;4995781;28;20034;-43
2021/01/02 09:17:30;;;;;;;57.67;31.50;;;4.60;96.50;;;;;;5005328;28;20369;-42
2021/01/02 09:20:17;;;;;;;58.20;32.65;;;4.60;96.50;;;;;;5005843;28;20080;-43
2021/01/02 09:22:55;;;;;;;58.38;32.40;;;4.70;96.50;;;;;;5005377;28;20089;-44
2021/01/02 09:25:37;;;;;;;66.50;36.15;;;4.70;96.50;;;;;;5005833;28;20064;-44
2021/01/02 09:28:17;;;;;;;70.07;36.45;;;4.70;96.40;;;;;;5006608;28;20061;-43
2021/01/02 09:30:44;;;;;;;68.32;36.42;;;4.60;96.40;;;;;;5006681;28;20759;-43
2021/01/02 09:33:10;;;;;;;59.10;33.95;;;4.70;96.50;;;;;;5006131;28;20113;-43
2021/01/02 09:35:37;;;;;;;66.47;34.33;;;4.60;96.50;;;;;;5007052;28;20109;-43
2021/01/02 09:38:04;;;;;;;56.97;32.17;;;4.70;96.50;;;;;;5006443;28;20029;-43
2021/01/02 09:40:29;;;;;;;58.38;31.30;;;4.70;96.50;;;;;;5005857;28;20018;-43
2021/01/02 09:42:55;;;;;;;66.32;35.08;;;4.70;96.50;;;;;;5006474;28;20117;-43
2021/01/02 09:45:20;;;;;;;56.88;32.80;;;4.80;96.40;;;;;;5005874;28;20377;-42
2021/01/02 09:47:46;;;;;;;55.95;30.88;;;4.80;96.40;;;;;;5006715;28;20463;-43
2021/01/02 09:50:12;;;;;;;58.05;30.92;;;4.70;96.40;;;;;;5005437;28;20018;-43
2021/01/02 09:52:38;;;;;;;58.17;32.53;;;4.80;96.50;;;;;;4996778;28;20056;-43
2021/01/02 09:55:04;;;;;;;56.72;31.65;;;4.80;96.40;;;;;;4995261;28;20026;-43
2021/01/02 09:57:29;;;;;;;63.45;35.67;;;4.70;96.30;;;;;;4987494;28;20065;-42
2021/01/02 09:59:55;;;;;;;61.17;33.47;;;4.70;96.40;;;;;;4985947;28;20100;-42
2021/01/02 10:02:20;;;;;;;64.15;32.83;;;4.70;96.40;;;;;;4985401;28;20061;-43
2021/01/02 10:04:48;;;;;;;54.55;30.42;;;4.70;96.50;;;;;;4985747;28;20034;-44
2021/01/02 10:07:15;;;;;;;54.10;29.98;;;4.70;96.50;;;;;;4985349;28;20048;-43
2021/01/02 10:09:42;;;;;;;59.97;32.13;;;4.70;96.50;;;;;;4986367;28;20339;-43
2021/01/02 10:12:09;;;;;;;58.97;31.02;;;4.80;96.50;;;;;;4985500;28;20109;-43
2021/01/02 10:14:35;;;;;;;54.45;30.92;;;4.80;96.50;;;;;;4986083;28;20049;-43
2021/01/02 10:17:01;;;;;;;58.08;31.25;;;4.80;96.50;;;;;;4986056;28;20088;-43
2021/01/02 10:19:26;;;;;;;61.47;33.47;;;4.80;96.50;;;;;;4984997;28;20466;-42
2021/01/02 10:21:52;;;;;;;61.03;33.63;;;4.80;96.40;;;;;;4985854;28;20026;-43
2021/01/02 10:24:17;;;;;;;60.38;32.38;;;4.90;96.50;;;;;;4989317;28;20026;-43
2021/01/02 10:26:43;;;;;;;58.17;30.70;;;4.90;96.40;;;;;;4998568;28;20449;-43
2021/01/02 10:29:08;;;;;;;54.85;31.02;;;4.90;96.40;;;;;;5010169;28;20026;-43
2021/01/02 10:31:34;;;;;;;48.53;28.25;;;4.90;96.40;;;;;;5008772;28;20105;-43
2021/01/02 10:34:00;;;;;;;48.22;27.33;;;4.90;96.40;;;;;;5009635;28;20450;-47
2021/01/02 10:36:25;;;;;;;52.80;28.15;;;5.00;96.40;;;;;;5009120;28;20172;-42
2021/01/02 10:38:51;;;;;;;61.67;30.58;;;5.00;96.40;;;;;;5009303;28;20114;-43
2021/01/02 10:41:16;;;;;;;51.92;28.50;;;5.00;96.30;;;;;;5009327;28;20511;-43
2021/01/02 10:43:42;;;;;;;49.70;27.25;;;5.10;96.40;;;;;;5009584;28;20022;-44
2021/01/02 10:46:09;;;;;;;63.83;32.08;;;5.10;96.40;;;;;;5009413;28;20501;-43
2021/01/02 10:48:35;;;;;;;65.28;33.38;;;5.10;96.20;;;;;;5009036;28;20469;-43
2021/01/02 10:51:01;;;;;;;69.82;34.13;;;5.10;96.20;;;;;;5009038;28;20046;-43
2021/01/02 10:53:26;;;;;;;61.53;33.00;;;5.10;96.20;;;;;;5008213;28;20029;-43
2021/01/02 10:55:51;;;;;;;64.15;34.83;;;5.10;96.20;;;;;;5009704;28;20033;-44
2021/01/02 10:58:17;;;;;;;61.15;31.55;;;5.10;96.20;;;;;;5008756;28;20095;-43
2021/01/02 11:00:42;;;;;;;58.25;32.28;;;5.10;96.30;;;;;;5008772;28;20033;-44
2021/01/02 11:03:08;;;;;;;52.95;27.40;;;5.20;96.30;;;;;;5008922;28;20030;-43
2021/01/02 11:05:33;;;;;;;61.20;30.90;;;5.20;96.30;;;;;;5008762;28;20140;-43
2021/01/02 11:07:59;;;;;;;58.08;29.85;;;5.20;96.20;;;;;;5008519;28;20018;-44
2021/01/02 11:10:24;;;;;;;49.72;28.42;;;5.30;96.30;;;;;;5008671;28;20730;-44
2021/01/02 11:12:50;;;;;;;56.13;29.85;;;5.30;96.20;;;;;;5009349;28;20121;-43
2021/01/02 11:15:16;;;;;;;56.33;29.15;;;5.40;96.20;;;;;;5008152;28;20389;-43
2021/01/02 11:17:41;;;;;;;57.63;30.05;;;5.40;96.20;;;;;;5009071;28;20049;-44
2021/01/02 11:20:08;;;;;;;58.03;30.55;;;5.40;96.10;;;;;;5008908;28;20066;-44
2021/01/02 11:22:34;;;;;;;61.35;31.92;;;5.50;96.00;;;;;;5008222;28;20719;-43
2021/01/02 11:24:59;;;;;;;58.08;32.47;;;5.50;96.00;;;;;;5008950;28;20018;-43
2021/01/02 11:27:25;;;;;;;62.33;32.97;;;5.40;95.90;;;;;;5008620;28;20061;-44
2021/01/02 11:29:50;;;;;;;61.15;32.17;;;5.40;95.90;;;;;;5008516;28;20394;-44
2021/01/02 11:32:16;;;;;;;61.60;31.98;;;5.40;96.00;;;;;;5008319;28;20037;-44
2021/01/02 11:34:42;;;;;;;61.60;31.60;;;5.40;95.90;;;;;;5007295;28;20018;-43
2021/01/02 11:37:11;;;;;;;59.95;30.42;;;5.40;95.90;;;;;;5008409;28;20029;-43
2021/01/02 11:39:37;;;;;;;58.67;31.27;;;5.40;95.90;;;;;;5008348;28;20024;-42
2021/01/02 11:42:06;;;;;;;58.88;31.35;;;5.30;95.90;;;;;;5008000;28;20034;-43
2021/01/02 11:44:31;;;;;;;59.60;30.27;;;5.30;95.90;;;;;;5008100;28;20050;-43
2021/01/02 11:46:59;;;;;;;58.40;29.60;;;5.30;95.90;;;;;;5008176;28;20441;-43
2021/01/02 11:49:35;;;;;;;55.47;31.08;;;5.30;95.90;;;;;;5007568;28;20030;-43
2021/01/02 11:52:04;;;;;;;53.08;28.10;;;5.30;95.90;;;;;;5007629;28;20121;-44
2021/01/02 11:54:30;;;;;;;55.30;28.85;;;5.30;96.00;;;;;;5007780;28;20042;-44
2021/01/02 11:56:56;;;;;;;53.90;28.05;;;5.30;96.10;;;;;;5008019;28;20133;-44
2021/01/02 11:59:22;;;;;;;50.63;26.88;;;5.30;96.00;;;;;;5002557;28;20077;-43
2021/01/02 12:01:54;;;;;;;56.13;30.25;;;5.30;96.00;;;;;;4998501;28;20023;-43
2021/01/02 12:04:22;;;;;;;48.05;26.10;;;5.40;96.00;;;;;;4997777;28;20109;-44
2021/01/02 12:06:50;;;;;;;56.15;28.92;;;5.40;96.00;;;;;;4998433;28;20666;-44
2021/01/02 12:09:16;;;;;;;47.80;25.77;;;5.40;96.00;;;;;;4996459;28;20085;-44
2021/01/02 12:11:44;;;;;;;55.97;28.52;;;5.50;96.00;;;;;;4998872;28;20058;-44
2021/01/02 12:14:12;;;;;;;52.58;26.13;;;5.50;95.90;;;;;;4996772;28;20026;-44
2021/01/02 12:16:41;;;;;;;50.67;25.98;;;5.50;95.90;;;;;;4994923;28;20042;-44
2021/01/02 12:19:09;;;;;;;52.60;26.15;;;5.60;95.90;;;;;;4987515;28;20501;-44
2021/01/02 12:21:34;;;;;;;45.33;24.50;;;5.60;95.90;;;;;;4989433;28;20041;-44
2021/01/02 12:24:00;;;;;;;53.00;29.67;;;5.50;95.90;;;;;;4987438;28;20030;-44
2021/01/02 12:26:26;;;;;;;54.47;27.33;;;5.60;95.90;;;;;;4985107;28;20042;-44
2021/01/02 12:28:52;;;;;;;51.33;27.67;;;5.60;95.90;;;;;;4990193;28;20092;-43
2021/01/02 12:31:21;;;;;;;53.75;27.23;;;5.60;95.90;;;;;;4993949;28;20687;-43
2021/01/02 12:33:47;;;;;;;53.53;28.67;;;5.60;95.90;;;;;;5007658;28;20597;-43
2021/01/02 12:36:14;;;;;;;50.10;27.55;;;5.60;95.80;;;;;;5007022;28;20112;-43
2021/01/02 12:38:41;;;;;;;54.08;28.63;;;5.70;95.90;;;;;;5006618;28;20030;-43
2021/01/02 12:41:15;;;;;;;46.78;25.75;;;5.60;95.60;;;;;;5007127;28;20034;-43
2021/01/02 12:43:42;;;;;;;48.30;26.27;;;5.60;95.70;;;;;;5007042;28;20536;-43
2021/01/02 12:46:09;;;;;;;44.05;24.10;;;5.60;95.70;;;;;;5005872;28;20697;-44
2021/01/02 12:48:35;;;;;;;49.63;27.17;;;5.60;95.80;;;;;;5005409;28;20517;-43
2021/01/02 12:51:01;;;;;;;49.70;26.92;;;5.60;95.80;;;;;;5006512;28;20042;-43
2021/01/02 12:53:27;;;;;;;46.80;24.90;;;5.50;95.80;;;;;;5004659;28;20061;-44